createdAt,value
2022-08-17T00:00:42.844Z,25.40
2022-08-17T00:03:24.782Z,25.40
2022-08-17T00:06:00.303Z,25.40
2022-08-17T00:08:33.286Z,25.30
2022-08-17T00:11:05.377Z,25.40
2022-08-17T00:13:40.889Z,25.30
2022-08-17T00:16:18.351Z,25.30
2022-08-17T00:19:04.164Z,25.30
2022-08-17T00:22:29.498Z,25.30
2022-08-17T00:24:29.537Z,25.20
2022-08-17T00:27:00.077Z,25.20
2022-08-17T00:29:27.892Z,25.10
2022-08-17T00:33:12.285Z,25.10
2022-08-17T00:34:51.694Z,25.10
2022-08-17T00:37:19.344Z,25.10
2022-08-17T00:39:59.730Z,25.10
2022-08-17T00:42:32.975Z,25.00
2022-08-17T00:45:01.831Z,25.00
2022-08-17T00:47:38.216Z,25.00
2022-08-17T00:50:13.773Z,25.00
2022-08-17T00:52:50.892Z,25.00
2022-08-17T00:55:21.401Z,25.00
2022-08-17T00:57:55.500Z,25.00
2022-08-17T01:00:30.636Z,24.90
2022-08-17T01:03:06.796Z,24.90
2022-08-17T01:05:42.281Z,24.90
2022-08-17T01:08:17.544Z,24.80
2022-08-17T01:11:00.582Z,24.80
2022-08-17T01:13:40.382Z,24.80
2022-08-17T01:16:24.561Z,24.80
2022-08-17T01:19:06.906Z,24.70
2022-08-17T01:21:49.986Z,24.70
2022-08-17T01:24:22.708Z,24.80
2022-08-17T01:26:57.710Z,24.70
2022-08-17T01:29:31.240Z,24.80
2022-08-17T01:32:05.854Z,24.80
2022-08-17T01:34:42.786Z,24.80
2022-08-17T01:40:18.288Z,24.90
2022-08-17T01:42:55.123Z,24.90
2022-08-17T01:45:32.168Z,24.90
2022-08-17T01:48:01.122Z,24.90
2022-08-17T01:50:41.222Z,25.00
2022-08-17T01:53:25.420Z,24.90
2022-08-17T01:56:12.763Z,25.00
2022-08-17T01:58:41.438Z,25.00
2022-08-17T02:01:15.992Z,25.00
2022-08-17T02:03:56.304Z,25.00
2022-08-17T02:06:54.397Z,25.00
2022-08-17T02:09:26.338Z,24.90
2022-08-17T02:12:38.042Z,24.90
2022-08-17T02:14:51.171Z,24.80
2022-08-17T02:17:47.692Z,24.80
2022-08-17T02:20:42.125Z,24.80
2022-08-17T02:23:14.520Z,24.90
2022-08-17T02:25:43.905Z,24.80
2022-08-17T02:28:13.756Z,24.90
2022-08-17T02:31:01.255Z,24.80
2022-08-17T02:33:42.568Z,24.90
2022-08-17T02:36:17.650Z,24.90
2022-08-17T02:38:46.446Z,24.90
2022-08-17T02:41:16.725Z,24.90
2022-08-17T02:43:44.299Z,24.90
2022-08-17T02:46:15.365Z,24.80
2022-08-17T02:48:50.358Z,24.90
2022-08-17T02:51:18.540Z,24.90
2022-08-17T02:53:49.597Z,24.90
2022-08-17T02:56:17.446Z,24.90
2022-08-17T02:58:46.442Z,24.80
2022-08-17T03:01:14.613Z,24.80
2022-08-17T03:03:42.590Z,24.80
2022-08-17T03:06:10.040Z,24.80
2022-08-17T03:08:40.954Z,24.80
2022-08-17T03:11:09.421Z,24.90
2022-08-17T03:13:47.689Z,24.90
2022-08-17T03:16:15.803Z,24.90
2022-08-17T03:18:43.674Z,24.90
2022-08-17T03:21:13.958Z,25.00
2022-08-17T03:23:44.722Z,25.00
2022-08-17T03:26:38.484Z,25.00
2022-08-17T03:29:08.938Z,25.00
2022-08-17T03:31:37.082Z,25.00
2022-08-17T03:34:08.457Z,25.00
2022-08-17T03:36:36.294Z,25.00
2022-08-17T03:39:10.446Z,24.90
2022-08-17T03:41:49.027Z,24.90
2022-08-17T03:44:19.451Z,25.00
2022-08-17T03:47:09.814Z,24.90
2022-08-17T03:49:56.087Z,25.00
2022-08-17T03:52:42.981Z,24.90
2022-08-17T03:55:36.386Z,25.00
2022-08-17T03:58:04.719Z,25.00
2022-08-17T04:00:36.683Z,24.90
2022-08-17T04:03:13.114Z,25.00
2022-08-17T04:05:41.688Z,24.90
2022-08-17T04:08:09.904Z,24.90
2022-08-17T04:10:38.367Z,24.90
2022-08-17T04:13:13.226Z,24.80
2022-08-17T04:15:44.522Z,24.80
2022-08-17T04:18:14.349Z,24.80
2022-08-17T04:20:42.802Z,24.80
2022-08-17T04:23:13.047Z,24.80
2022-08-17T04:25:48.331Z,24.80
2022-08-17T04:28:24.244Z,24.80
2022-08-17T04:30:58.917Z,24.90
2022-08-17T04:33:34.908Z,24.80
2022-08-17T04:36:14.044Z,24.80
2022-08-17T04:38:48.556Z,24.80
2022-08-17T04:41:35.902Z,24.80
2022-08-17T04:44:04.836Z,24.70
2022-08-17T04:46:44.736Z,24.70
2022-08-17T04:49:15.712Z,24.70
2022-08-17T04:54:32.485Z,24.70
2022-08-17T04:57:00.264Z,24.60
2022-08-17T04:59:32.667Z,24.60
2022-08-17T05:02:04.589Z,24.60
2022-08-17T05:04:34.122Z,24.70
2022-08-17T05:07:05.277Z,24.70
2022-08-17T05:09:43.006Z,24.70
2022-08-17T05:12:22.436Z,24.80
2022-08-17T05:14:52.125Z,24.70
2022-08-17T05:17:24.868Z,24.70
2022-08-17T05:19:53.248Z,24.60
2022-08-17T05:22:32.092Z,24.60
2022-08-17T05:25:00.232Z,24.60
2022-08-17T05:27:36.109Z,24.60
2022-08-17T05:30:06.887Z,24.70
2022-08-17T05:32:41.883Z,24.70
2022-08-17T05:35:11.928Z,24.70
2022-08-17T05:37:40.279Z,24.90
2022-08-17T05:40:13.505Z,24.80
2022-08-17T05:43:10.590Z,24.90
2022-08-17T05:45:56.432Z,24.90
2022-08-17T05:48:36.768Z,24.80
2022-08-17T05:51:15.956Z,24.80
2022-08-17T05:53:56.428Z,24.80
2022-08-17T05:56:46.910Z,24.90
2022-08-17T06:02:47.660Z,25.00
2022-08-17T06:06:05.766Z,25.00
2022-08-17T06:08:59.614Z,25.00
2022-08-17T06:11:55.426Z,25.00
2022-08-17T06:14:50.260Z,25.00
2022-08-17T06:17:22.987Z,25.00
2022-08-17T06:19:58.479Z,25.00
2022-08-17T06:22:50.527Z,25.00
2022-08-17T06:25:41.878Z,24.80
2022-08-17T06:31:54.010Z,24.60
2022-08-17T06:34:35.341Z,24.60
2022-08-17T06:37:25.537Z,24.70
2022-08-17T06:40:22.008Z,24.70
2022-08-17T06:43:15.836Z,24.80
2022-08-17T06:45:52.810Z,24.80
2022-08-17T06:48:29.641Z,24.80
2022-08-17T06:51:31.850Z,25.00
2022-08-17T06:54:10.225Z,25.10
2022-08-17T06:57:08.244Z,25.40
2022-08-17T07:00:18.152Z,25.50
2022-08-17T07:04:39.666Z,25.60
2022-08-17T07:07:04.472Z,25.50
2022-08-17T07:14:06.154Z,25.60
2022-08-17T07:16:50.725Z,25.70
2022-08-17T07:19:49.431Z,25.80
2022-08-17T07:26:52.663Z,26.20
2022-08-17T07:30:11.954Z,26.50
2022-08-17T07:33:25.798Z,26.90
2022-08-17T07:36:45.240Z,27.50
2022-08-17T07:46:33.106Z,28.80
2022-08-17T07:55:50.913Z,29.30
2022-08-17T07:58:21.537Z,29.20
2022-08-17T08:01:58.475Z,29.20
2022-08-17T08:05:00.710Z,29.20
2022-08-17T08:07:46.433Z,29.20
2022-08-17T08:10:47.551Z,29.00
2022-08-17T08:13:28.418Z,29.20
2022-08-17T08:16:29.871Z,29.20
2022-08-17T08:22:38.345Z,29.20
2022-08-17T08:25:45.000Z,29.30
2022-08-17T08:28:52.020Z,29.50
2022-08-17T08:31:58.911Z,29.30
2022-08-17T08:34:47.391Z,29.20
2022-08-17T08:38:07.877Z,29.30
2022-08-17T08:41:23.121Z,29.50
2022-08-17T08:44:07.779Z,29.50
2022-08-17T08:51:01.267Z,29.90
2022-08-17T08:54:15.454Z,30.60
2022-08-17T08:57:22.376Z,31.30
2022-08-17T09:04:24.164Z,33.90
2022-08-17T09:07:02.125Z,35.80
2022-08-17T09:09:53.370Z,36.60
2022-08-17T09:12:57.677Z,36.80
2022-08-17T09:15:49.316Z,37.30
2022-08-17T09:22:28.226Z,39.20
2022-08-17T09:25:03.774Z,39.20
2022-08-17T09:28:10.274Z,39.00
2022-08-17T09:30:47.385Z,39.00
2022-08-17T09:33:18.107Z,38.60
2022-08-17T09:36:07.683Z,38.10
2022-08-17T09:38:58.129Z,38.20
2022-08-17T09:42:12.819Z,37.90
2022-08-17T09:45:25.721Z,37.50
2022-08-17T09:51:04.727Z,36.60
2022-08-17T09:57:28.032Z,36.20
2022-08-17T10:00:41.757Z,36.90
2022-08-17T10:03:42.569Z,37.80
2022-08-17T10:06:40.359Z,38.00
2022-08-17T10:09:43.641Z,37.40
2022-08-17T10:12:20.660Z,37.10
2022-08-17T10:15:17.788Z,36.80
2022-08-17T10:17:57.746Z,36.40
2022-08-17T10:20:44.734Z,35.70
2022-08-17T10:23:51.496Z,35.20
2022-08-17T10:26:46.192Z,34.70
2022-08-17T10:29:47.503Z,34.40
2022-08-17T10:32:39.234Z,34.10
2022-08-17T10:35:23.672Z,34.10
2022-08-17T10:38:42.493Z,34.20
2022-08-17T10:44:53.453Z,34.40
2022-08-17T10:47:27.026Z,34.40
2022-08-17T10:49:57.552Z,34.40
2022-08-17T10:52:36.281Z,34.40
2022-08-17T10:55:26.783Z,34.40
2022-08-17T10:58:21.785Z,34.00
2022-08-17T11:00:57.466Z,33.80
2022-08-17T11:03:28.960Z,33.80
2022-08-17T11:06:24.274Z,33.70
2022-08-17T11:09:20.283Z,33.40
2022-08-17T11:12:10.153Z,33.50
2022-08-17T11:15:06.108Z,33.60
2022-08-17T11:18:22.762Z,33.60
2022-08-17T11:21:20.934Z,33.70
2022-08-17T11:24:27.556Z,33.60
2022-08-17T11:27:26.004Z,33.70
2022-08-17T11:30:21.238Z,33.70
2022-08-17T11:33:01.718Z,33.70
2022-08-17T11:35:59.317Z,33.90
2022-08-17T11:38:58.118Z,34.20
2022-08-17T11:41:38.725Z,34.30
2022-08-17T11:47:34.654Z,34.50
2022-08-17T11:50:33.914Z,34.60
2022-08-17T11:53:16.206Z,34.40
2022-08-17T11:56:19.819Z,34.30
2022-08-17T11:58:50.597Z,34.30
2022-08-17T12:01:28.668Z,34.40
2022-08-17T12:04:35.994Z,34.60
2022-08-17T12:07:27.516Z,34.90
2022-08-17T12:10:01.404Z,34.90
2022-08-17T12:12:36.206Z,35.00
2022-08-17T12:15:18.620Z,34.90
2022-08-17T12:19:02.326Z,34.90
2022-08-17T12:21:48.287Z,35.00
2022-08-17T12:24:51.991Z,34.60
2022-08-17T12:28:04.455Z,34.30
2022-08-17T12:30:40.878Z,34.10
2022-08-17T12:33:25.236Z,34.00
2022-08-17T12:36:16.698Z,33.80
2022-08-17T12:39:13.911Z,33.80
2022-08-17T12:41:50.425Z,33.70
2022-08-17T12:44:53.192Z,33.60
2022-08-17T12:47:40.468Z,33.50
2022-08-17T12:50:28.619Z,33.20
2022-08-17T12:53:10.078Z,33.20
2022-08-17T12:55:39.076Z,33.20
2022-08-17T12:58:15.333Z,33.10
2022-08-17T13:01:16.521Z,33.10
2022-08-17T13:03:58.411Z,33.00
2022-08-17T13:06:59.597Z,33.20
2022-08-17T13:09:35.771Z,33.30
2022-08-17T13:12:08.880Z,33.50
2022-08-17T13:14:49.231Z,33.70
2022-08-17T13:17:34.773Z,33.80
2022-08-17T13:20:20.884Z,33.80
2022-08-17T13:22:57.886Z,33.90
2022-08-17T13:25:30.367Z,33.80
2022-08-17T13:28:01.010Z,33.70
2022-08-17T13:30:32.786Z,33.60
2022-08-17T13:33:21.492Z,33.50
2022-08-17T13:36:09.444Z,33.30
2022-08-17T13:38:52.173Z,33.40
2022-08-17T13:41:52.697Z,33.60
2022-08-17T13:44:42.165Z,33.60
2022-08-17T13:47:20.488Z,33.50
2022-08-17T13:49:51.571Z,33.50
2022-08-17T13:52:39.184Z,33.60
2022-08-17T13:55:22.576Z,33.60
2022-08-17T13:58:06.950Z,33.70
2022-08-17T14:00:36.965Z,33.90
2022-08-17T14:03:15.615Z,34.00
2022-08-17T14:05:43.058Z,34.40
2022-08-17T14:08:14.216Z,34.60
2022-08-17T14:10:45.960Z,34.60
2022-08-17T14:13:16.984Z,34.70
2022-08-17T14:15:55.364Z,34.80
2022-08-17T14:18:34.266Z,34.70
2022-08-17T14:21:16.083Z,34.30
2022-08-17T14:23:54.644Z,34.20
2022-08-17T14:26:31.226Z,34.20
2022-08-17T14:29:01.298Z,34.10
2022-08-17T14:31:36.839Z,34.10
2022-08-17T14:34:11.455Z,33.90
2022-08-17T14:36:48.247Z,33.70
2022-08-17T14:39:23.859Z,33.50
2022-08-17T14:41:59.339Z,33.40
2022-08-17T14:44:30.293Z,33.50
2022-08-17T14:46:57.791Z,33.40
2022-08-17T14:49:26.293Z,33.30
2022-08-17T14:51:56.753Z,33.20
2022-08-17T14:54:32.777Z,33.10
2022-08-17T14:57:22.193Z,33.20
2022-08-17T14:59:59.509Z,33.20
2022-08-17T15:02:31.264Z,32.90
2022-08-17T15:05:00.786Z,32.80
2022-08-17T15:07:30.397Z,32.70
2022-08-17T15:10:01.668Z,32.60
2022-08-17T15:12:57.116Z,32.70
2022-08-17T15:15:27.949Z,32.70
2022-08-17T15:17:57.921Z,32.40
2022-08-17T15:20:28.177Z,32.30
2022-08-17T15:23:05.345Z,32.40
2022-08-17T15:25:33.471Z,32.30
2022-08-17T15:28:04.423Z,32.20
2022-08-17T15:30:45.507Z,32.20
2022-08-17T15:33:16.246Z,32.10
2022-08-17T15:35:53.463Z,32.00
2022-08-17T15:38:24.069Z,31.80
2022-08-17T15:40:58.725Z,31.70
2022-08-17T15:43:31.243Z,31.60
2022-08-17T15:46:06.556Z,31.50
2022-08-17T15:48:42.460Z,31.40
2022-08-17T15:51:22.700Z,31.40
2022-08-17T15:54:04.439Z,31.30
2022-08-17T15:56:48.883Z,31.20
2022-08-17T15:59:16.305Z,31.20
2022-08-17T16:03:15.345Z,31.10
2022-08-17T16:04:31.895Z,31.10
2022-08-17T16:07:01.369Z,31.00
2022-08-17T16:09:31.065Z,30.90
2022-08-17T16:12:13.943Z,30.90
2022-08-17T16:14:43.504Z,30.80
2022-08-17T16:17:38.935Z,30.60
2022-08-17T16:20:02.770Z,30.70
2022-08-17T16:22:57.227Z,30.60
2022-08-17T16:25:50.357Z,30.60
2022-08-17T16:28:35.797Z,30.70
2022-08-17T16:31:08.124Z,30.50
2022-08-17T16:33:40.168Z,30.60
2022-08-17T16:36:11.285Z,30.40
2022-08-17T16:38:38.985Z,30.50
2022-08-17T16:41:07.516Z,30.40
2022-08-17T16:43:35.255Z,30.40
2022-08-17T16:46:10.160Z,30.30
2022-08-17T16:48:40.332Z,30.10
2022-08-17T16:51:10.773Z,30.20
2022-08-17T16:53:38.190Z,30.20
2022-08-17T16:56:09.229Z,30.00
2022-08-17T16:58:37.851Z,29.90
2022-08-17T17:01:13.062Z,29.90
2022-08-17T17:03:47.691Z,29.90
2022-08-17T17:06:32.410Z,29.90
2022-08-17T17:09:12.202Z,29.80
2022-08-17T17:11:44.695Z,29.70
2022-08-17T17:14:28.024Z,29.60
2022-08-17T17:17:13.552Z,29.50
2022-08-17T17:20:07.156Z,29.40
2022-08-17T17:23:13.290Z,29.20
2022-08-17T17:25:52.199Z,29.20
2022-08-17T17:28:28.000Z,29.10
2022-08-17T17:31:07.565Z,29.10
2022-08-17T17:33:49.779Z,28.90
2022-08-17T17:36:48.931Z,28.90
2022-08-17T17:39:22.482Z,28.80
2022-08-17T17:42:02.733Z,28.80
2022-08-17T17:44:36.094Z,28.70
2022-08-17T17:47:17.876Z,28.70
2022-08-17T17:49:53.974Z,28.60
2022-08-17T17:52:51.365Z,28.50
2022-08-17T17:55:33.071Z,28.40
2022-08-17T17:58:48.583Z,28.30
2022-08-17T18:01:46.370Z,28.20
2022-08-17T18:04:23.515Z,28.10
2022-08-17T18:07:22.065Z,28.00
2022-08-17T18:10:30.531Z,27.90
2022-08-17T18:13:11.814Z,27.80
2022-08-17T18:15:52.210Z,27.70
2022-08-17T18:18:52.731Z,27.70
2022-08-17T18:21:30.990Z,27.50
2022-08-17T18:24:02.171Z,27.50
2022-08-17T18:26:47.608Z,27.40
2022-08-17T18:29:41.222Z,27.40
2022-08-17T18:32:33.530Z,27.20
2022-08-17T18:37:56.764Z,27.10
2022-08-17T18:40:29.636Z,27.10
2022-08-17T18:43:03.509Z,27.00
2022-08-17T18:45:33.987Z,27.00
2022-08-17T18:48:07.595Z,26.90
2022-08-17T18:50:42.110Z,26.90
2022-08-17T18:53:26.479Z,26.80
2022-08-17T18:56:21.985Z,26.80
2022-08-17T18:59:06.655Z,26.70
2022-08-17T19:02:39.107Z,26.60
2022-08-17T19:05:33.528Z,26.70
2022-08-17T19:08:28.778Z,26.50
2022-08-17T19:11:47.754Z,26.50
2022-08-17T19:14:16.974Z,26.40
2022-08-17T19:16:53.575Z,26.30
2022-08-17T19:19:52.781Z,26.40
2022-08-17T19:22:44.491Z,26.30
2022-08-17T19:25:21.901Z,26.30
2022-08-17T19:28:00.724Z,26.20
2022-08-17T19:30:31.083Z,26.20
2022-08-17T19:33:01.635Z,26.20
2022-08-17T19:35:56.180Z,26.20
2022-08-17T19:38:38.430Z,26.10
2022-08-17T19:41:32.810Z,26.10
2022-08-17T19:44:28.157Z,25.90
2022-08-17T19:47:51.025Z,26.00
2022-08-17T19:50:22.418Z,25.90
2022-08-17T19:52:56.871Z,25.80
2022-08-17T19:55:45.400Z,25.80
2022-08-17T19:58:31.102Z,25.80
2022-08-17T20:00:58.793Z,25.70
2022-08-17T20:03:53.995Z,25.70
2022-08-17T20:06:25.043Z,25.60
2022-08-17T20:08:59.875Z,25.60
2022-08-17T20:12:08.359Z,25.50
2022-08-17T20:14:53.291Z,25.50
2022-08-17T20:17:29.519Z,25.40
2022-08-17T20:20:19.780Z,25.40
2022-08-17T20:23:23.000Z,25.30
2022-08-17T20:26:19.547Z,25.30
2022-08-17T20:29:11.285Z,25.30
2022-08-17T20:32:13.201Z,25.20
2022-08-17T20:34:43.352Z,25.10
2022-08-17T20:37:21.761Z,25.10
2022-08-17T20:39:56.593Z,25.00
2022-08-17T20:42:24.496Z,24.90
2022-08-17T20:45:02.285Z,25.00
2022-08-17T20:48:00.800Z,24.90
2022-08-17T20:50:40.144Z,24.90
2022-08-17T20:53:15.032Z,24.80
2022-08-17T20:55:52.312Z,24.70
2022-08-17T20:58:30.816Z,24.70
2022-08-17T21:01:01.731Z,24.70
2022-08-17T21:03:40.018Z,24.60
2022-08-17T21:06:22.126Z,24.70
2022-08-17T21:08:54.700Z,24.50
2022-08-17T21:11:57.235Z,24.50
2022-08-17T21:14:26.065Z,24.50
2022-08-17T21:17:29.849Z,24.50
2022-08-17T21:20:12.075Z,24.50
2022-08-17T21:23:01.208Z,24.40
2022-08-17T21:25:55.296Z,24.40
2022-08-17T21:29:29.975Z,24.40
2022-08-17T21:32:06.790Z,24.40
2022-08-17T21:34:45.289Z,24.30
2022-08-17T21:37:29.966Z,24.40
2022-08-17T21:40:11.935Z,24.30
2022-08-17T21:42:46.961Z,24.30
2022-08-17T21:45:27.582Z,24.20
2022-08-17T21:48:13.756Z,24.30
2022-08-17T21:50:44.455Z,24.20
2022-08-17T21:53:15.667Z,24.20
2022-08-17T21:55:43.081Z,24.30
2022-08-17T21:58:30.157Z,24.20
2022-08-17T22:01:15.726Z,24.10
2022-08-17T22:03:45.076Z,24.10
2022-08-17T22:06:39.851Z,24.10
2022-08-17T22:09:18.125Z,24.10
2022-08-17T22:11:59.882Z,24.00
2022-08-17T22:14:52.533Z,24.00
2022-08-17T22:17:30.523Z,24.00
2022-08-17T22:20:14.728Z,23.90
2022-08-17T22:23:20.204Z,23.90
2022-08-17T22:26:09.593Z,23.90
2022-08-17T22:28:46.751Z,23.80
2022-08-17T22:31:18.331Z,23.80
2022-08-17T22:34:05.089Z,23.80
2022-08-17T22:36:33.714Z,23.70
2022-08-17T22:39:23.882Z,23.70
2022-08-17T22:41:54.662Z,23.60
2022-08-17T22:44:37.820Z,23.60
2022-08-17T22:47:24.598Z,23.60
2022-08-17T22:49:58.940Z,23.60
2022-08-17T22:52:33.377Z,23.50
2022-08-17T22:55:27.406Z,23.50
2022-08-17T22:58:19.972Z,23.50
2022-08-17T23:00:49.375Z,23.40
2022-08-17T23:03:28.875Z,23.40
2022-08-17T23:06:08.096Z,23.30
2022-08-17T23:08:48.597Z,23.30
2022-08-17T23:11:16.631Z,23.20
2022-08-17T23:13:47.781Z,23.20
2022-08-17T23:16:17.111Z,23.20
2022-08-17T23:18:50.248Z,23.20
2022-08-17T23:21:25.676Z,23.20
2022-08-17T23:23:59.147Z,23.10
2022-08-17T23:26:28.261Z,23.10
2022-08-17T23:28:55.600Z,23.10
2022-08-17T23:31:25.942Z,23.10
2022-08-17T23:33:53.307Z,23.10
2022-08-17T23:36:21.149Z,23.00
2022-08-17T23:38:48.860Z,23.00
2022-08-17T23:41:23.938Z,23.00
2022-08-17T23:44:07.711Z,23.00
2022-08-17T23:46:38.652Z,23.00
2022-08-17T23:49:06.793Z,23.00
2022-08-17T23:51:45.282Z,22.90
2022-08-17T23:54:43.720Z,22.90
2022-08-17T23:57:16.327Z,22.90
2022-08-17T23:59:47.280Z,22.80
